• Join FlightAware (Why Join?)
  • Login
  • US Flag 
07:55PM EDT


 

Airport Tracker/Info


-or-


 

Live Flight TrackerFlight Track Log ✈ SWA3206 ✈ 12-May-2013 ✈ KMDW - KSAN

Flight Track Log - Related Links

Times and Time Zones

All times are in EDT time to prevent confusion due to time zone crossing. See the SWA3206 flight status page for this flight to view local times or setup timezone preferences in your user account.

Time Position Orientation Groundspeed Altitude Reporting Facility
EDT Latitude Longitude Course Direction KTS MPH feet Rate Location/Type
02:02PM 41.8000 -87.8000 236° Southwest 177 204 2,500  Level Chicago TRACON
02:03PM 41.7667 -87.8667 236° Southwest 217 250 6,000 3,240 Climbing Chicago TRACON
02:04PM 41.7614 -87.9050 260° West 220 253 7,600 2,520 Climbing Chicago Center
02:05PM 41.7294 -87.9839 242° Southwest 238 274 10,000 2,100 Climbing Chicago Center
02:06PM 41.7100 -88.0794 255° West 265 305 12,000 960 Climbing Chicago Center
02:07PM 41.7492 -88.1528 306° West 254 292 12,000 240 Level Chicago Center
02:08PM 41.7611 -88.2667 278° West 267 307 12,500 1,260 Climbing Chicago Center
02:09PM 41.7672 -88.3842 274° West 308 354 14,600 2,340 Climbing Chicago Center
02:10PM 41.7736 -88.5125 274° West 341 392 17,400 2,460 Climbing Chicago Center
02:11PM 41.7803 -88.6461 274° West 357 411 19,800 2,280 Climbing Chicago Center
02:12PM 41.7844 -88.7839 272° West 371 427 22,200 2,580 Climbing Chicago Center
02:13PM 41.7469 -88.9547 254° West 399 459 25,100 2,220 Climbing Chicago Center
02:14PM 41.7122 -89.0969 252° West 403 464 26,800 1,440 Climbing Chicago Center
02:15PM 41.6742 -89.2467 251° West 420 483 28,100 1,500 Climbing Chicago Center
02:16PM 41.6375 -89.3992 252° West 431 496 29,900 1,980 Climbing Chicago Center
02:17PM 41.5961 -89.5617 251° West 432 497 32,200 1,920 Climbing Chicago Center
02:18PM 41.5600 -89.7072 252° West 422 486 33,900 1,500 Climbing Chicago Center
02:19PM 41.5242 -89.8517 252° West 415 478 35,400 960 Climbing Chicago Center
02:20PM 41.4872 -89.9950 251° West 412 474 36,000 240 Climbing Chicago Center
02:21PM 41.4506 -90.1403 251° West 414 476 36,000  Level Chicago Center
02:22PM 41.4058 -90.3142 251° West 415 478 36,000  Level Chicago Center
02:23PM 41.3689 -90.4575 251° West 414 476 36,000  Level Chicago Center
02:24PM 41.3314 -90.6019 251° West 415 478 36,000  Level Chicago Center
02:25PM 41.2881 -90.7522 249° West 429 494 36,000  Level Chicago Center
02:26PM 41.2467 -90.8939 249° West 420 483 36,000  Level Chicago Center
02:27PM 41.2042 -91.0378 249° West 419 482 36,000  Level Chicago Center
02:28PM 41.1533 -91.2094 249° West 417 480 36,000  Level Chicago Center
02:29PM 41.1150 -91.3500 250° West 409 471 36,000  Level Chicago Center
02:30PM 41.0917 -91.4942 258° West 403 464 36,000  Level Chicago Center
02:31PM 41.0658 -91.6381 257° West 401 461 36,000  Level Chicago Center
02:32PM 41.0394 -91.7778 256° West 401 461 36,000  Level Chicago Center
02:33PM 41.0133 -91.9183 256° West 398 458 36,000  Level Chicago Center
02:34PM 40.9833 -92.0850 257° West 394 453 36,000  Level Chicago Center
02:35PM 40.9569 -92.2225 256° West 391 450 36,000  Level Chicago Center
02:36PM 40.9325 -92.3606 257° West 390 449 36,000  Level Chicago Center
02:38PM 40.9056 -92.4994 256° West 394 453 36,000  Level Chicago Center
02:39PM 40.8739 -92.6650 256° West 393 452 36,000  Level Chicago Center
02:40PM 40.8467 -92.8047 256° West 398 458 36,000  Level Chicago Center
02:41PM 40.8197 -92.9444 256° West 399 459 36,000  Level Chicago Center
02:41PM 40.8094 -93.0014 257° West 400 460 36,000  Level Minneapolis Center
02:42PM 40.7817 -93.1411 255° West 400 460 36,000 120 Level Minneapolis Center
02:43PM 40.7528 -93.2825 255° West 402 463 36,300 420 Climbing Minneapolis Center
02:44PM 40.7194 -93.4572 256° West 411 473 36,900 780 Climbing Minneapolis Center
02:45PM 40.6883 -93.6081 255° West 423 487 38,000 480 Climbing Minneapolis Center
02:46PM 40.6600 -93.7561 256° West 422 486 38,000  Level Minneapolis Center
02:47PM 40.6297 -93.9039 255° West 421 484 38,000  Level Minneapolis Center
02:48PM 40.5978 -94.0533 254° West 425 489 38,000  Level Minneapolis Center
02:49PM 40.5731 -94.1722 255° West 425 489 38,000  Level Minneapolis Center
02:50PM 40.5297 -94.3783 255° West 423 487 38,000  Level Minneapolis Center
02:51PM 40.4994 -94.5272 255° West 425 489 38,000  Level Minneapolis Center
02:52PM 40.4667 -94.6836 255° West 427 491 38,000  Level Minneapolis Center
02:53PM 40.4347 -94.8361 255° West 431 496 38,000  Level Minneapolis Center
02:54PM 40.4028 -94.9886 255° West 432 497 38,000  Level Minneapolis Center
02:55PM 40.3697 -95.1442 254° West 438 504 38,000  Level Minneapolis Center
02:56PM 40.3361 -95.2992 254° West 440 506 38,000  Level Minneapolis Center
02:57PM 40.2953 -95.4869 254° West 444 511 38,000  Level Minneapolis Center
02:59PM 40.2611 -95.6428 254° West 445 512 38,000  Level Minneapolis Center
03:00PM 40.2264 -95.7997 254° West 446 513 38,000  Level Minneapolis Center
03:01PM 40.1917 -95.9553 254° West 445 512 38,000  Level Minneapolis Center
03:02PM 40.1575 -96.1100 254° West 444 511 38,000  Level Minneapolis Center
03:03PM 40.1222 -96.2669 254° West 447 514 38,000  Level Minneapolis Center
03:04PM 40.0933 -96.3933 253° West 450 518 38,000  Level Minneapolis Center
03:05PM 40.0506 -96.5844 254° West 454 522 38,000  Level Minneapolis Center
03:06PM 40.0056 -96.7742 253° West 456 525 38,000  Level Minneapolis Center
03:07PM 39.9686 -96.9350 253° West 459 528 38,000  Level Minneapolis Center
03:08PM 39.9306 -97.0947 253° West 461 531 38,000  Level Minneapolis Center
03:09PM 39.8928 -97.2539 253° West 461 531 38,000  Level Minneapolis Center
03:10PM 39.8517 -97.4289 253° West 460 529 38,000  Level Minneapolis Center
03:11PM 39.8133 -97.5889 253° West 461 531 38,000  Level Minneapolis Center
03:12PM 39.7753 -97.7478 253° West 460 529 38,000  Level Minneapolis Center
03:13PM 39.7353 -97.9086 252° West 463 533 38,000  Level Minneapolis Center
03:14PM 39.6967 -98.0731 253° West 470 541 38,000  Level Minneapolis Center
03:15PM 39.6561 -98.2375 252° West 473 544 38,000  Level Minneapolis Center
03:16PM 39.6239 -98.3697 252° West 477 549 38,000  Level Minneapolis Center
03:16PM 39.5986 -98.4689 252° West 476 548 38,000  Level Denver Center
03:17PM 39.5578 -98.6322 252° West 475 547 38,000  Level Denver Center
03:18PM 39.5161 -98.7956 252° West 475 547 38,000  Level Denver Center
03:19PM 39.4753 -98.9575 252° West 474 545 38,000  Level Denver Center
03:20PM 39.4317 -99.1297 252° West 473 544 38,000  Level Denver Center
03:21PM 39.3919 -99.2825 251° West 471 542 38,000  Level Denver Center
03:22PM 39.3461 -99.4614 252° West 467 537 38,000  Level Denver Center
03:24PM 39.3061 -99.6150 251° West 470 541 38,000  Level Denver Center
03:25PM 39.2592 -99.7922 251° West 469 540 38,000  Level Denver Center
03:26PM 39.2147 -99.9603 251° West 467 537 38,000  Level Denver Center
03:27PM 39.1722 -100.1239 252° West 471 542 38,000  Level Denver Center
03:28PM 39.1308 -100.2758 251° West 470 541 38,000  Level Denver Center
03:29PM 39.0833 -100.4550 251° West 472 543 38,000  Level Denver Center
03:30PM 39.0411 -100.6058 250° West 469 540 38,000  Level Denver Center
03:31PM 38.9961 -100.7711 251° West 471 542 38,000  Level Denver Center
03:32PM 38.9542 -100.9242 251° West 475 547 38,000  Level Denver Center
03:33PM 38.9058 -101.1031 251° West 476 548 38,000  Level Denver Center
03:34PM 38.8625 -101.2553 250° West 477 549 38,000  Level Denver Center
03:35PM 38.8133 -101.4347 251° West 479 551 38,000  Level Denver Center
03:36PM 38.7694 -101.5861 250° West 477 549 38,000  Level Denver Center
03:37PM 38.7192 -101.7658 250° West 481 554 38,000  Level Denver Center
03:38PM 38.6756 -101.9197 250° West 482 555 38,000  Level Denver Center
03:39PM 38.6236 -102.0994 250° West 484 557 38,000  Level Denver Center
03:40PM 38.5792 -102.2536 250° West 485 558 38,000  Level Denver Center
03:41PM 38.5267 -102.4331 250° West 483 556 38,000  Level Denver Center
03:42PM 38.4819 -102.5864 250° West 483 556 38,000  Level Denver Center
03:43PM 38.4367 -102.7392 249° West 482 555 38,000  Level Denver Center
03:44PM 38.3844 -102.9194 250° West 487 560 38,000  Level Denver Center
03:45PM 38.3389 -103.0742 249° West 488 562 38,000  Level Denver Center
03:46PM 38.2772 -103.2778 249° West 486 559 38,000  Level Denver Center
03:47PM 38.2242 -103.4561 249° West 485 558 38,000  Level Denver Center
03:48PM 38.1769 -103.6108 249° West 489 563 38,000  Level Denver Center
03:50PM 38.1222 -103.7883 249° West 487 560 38,000  Level Denver Center
03:51PM 38.0681 -103.9672 249° West 490 564 38,000  Level Denver Center
03:52PM 38.0119 -104.1436 248° West 487 560 38,000  Level Denver Center
03:53PM 37.9653 -104.2961 249° West 488 562 38,000  Level Denver Center
03:54PM 37.9094 -104.4736 248° West 489 563 38,000  Level Denver Center
03:55PM 37.8622 -104.6264 249° West 490 564 38,000  Level Denver Center
03:56PM 37.8064 -104.8033 248° West 488 562 38,000  Level Denver Center
03:57PM 37.7567 -104.9536 247° West 487 560 38,000  Level Denver Center
03:58PM 37.7028 -105.1292 249° West 481 554 38,000  Level Denver Center
03:59PM 37.6533 -105.2789 247° West 484 557 38,000  Level Denver Center
04:00PM 37.5969 -105.4531 248° West 482 555 38,000  Level Denver Center
04:01PM 37.5489 -105.6022 248° West 479 551 38,000  Level Denver Center
04:02PM 37.4931 -105.7681 247° West 478 550 38,000  Level Denver Center
04:03PM 37.4436 -105.9172 247° West 480 552 38,000  Level Denver Center
04:04PM 37.3869 -106.0919 248° West 484 557 38,000  Level Denver Center
04:05PM 37.3353 -106.2408 246° West 484 557 38,000  Level Denver Center
04:06PM 37.2867 -106.3919 248° West 487 560 38,000  Level Denver Center
04:07PM 37.2281 -106.5672 247° West 488 562 38,000  Level Denver Center
04:08PM 37.1764 -106.7175 247° West 490 564 38,000  Level Denver Center
04:09PM 37.1178 -106.8944 247° West 493 567 38,000  Level Denver Center
04:10PM 37.0656 -107.0442 246° West 490 564 38,000  Level Denver Center
04:11PM 37.0058 -107.2197 247° West 492 566 38,000  Level Denver Center
04:12PM 36.9542 -107.3683 247° West 489 563 38,000  Level Denver Center
04:13PM 36.9028 -107.5156 246° West 485 558 38,000  Level Denver Center
04:14PM 36.8244 -107.6458 233° Southwest 494 568 38,000  Level Denver Center
04:15PM 36.7247 -107.7908 229° Southwest 492 566 38,000  Level Denver Center
04:16PM 36.6358 -107.9444 234° Southwest 491 565 38,000  Level Denver Center
04:17PM 36.5842 -108.0914 246° West 485 558 38,000  Level Denver Center
04:18PM 36.5250 -108.2656 247° West 489 563 38,000  Level Denver Center
04:20PM 36.4744 -108.4139 247° West 489 563 38,000  Level Denver Center
04:22PM 36.3658 -108.7333 247° West 486 559 38,000  Level Denver Center
04:23PM 36.3161 -108.8786 247° West 484 557 38,000  Level Denver Center
04:24PM 36.2569 -109.0481 247° West 486 559 38,000  Level Denver Center
04:25PM 36.2056 -109.1931 246° West 486 559 38,000  Level Denver Center
04:26PM 36.1453 -109.3639 246° West 488 562 38,000  Level Denver Center
04:27PM 36.0933 -109.5106 246° West 487 560 38,000  Level Denver Center
04:28PM 36.0322 -109.6811 246° West 488 562 38,000  Level Denver Center
04:29PM 35.9794 -109.8281 246° West 490 564 38,000  Level Denver Center
04:30PM 35.9183 -110.0008 246° West 491 565 38,000  Level Denver Center
04:31PM 35.8631 -110.1517 246° West 486 559 38,000  Level Denver Center
04:32PM 35.8069 -110.3072 246° West 493 567 38,000  Level Denver Center
04:33PM 35.7492 -110.4617 245° Southwest 496 571 38,000  Level Denver Center
04:34PM 35.6903 -110.6144 245° Southwest 495 570 38,000  Level Albuquerque Center
04:35PM 35.6267 -110.7878 246° West 497 572 38,000  Level Albuquerque Center
04:36PM 35.5728 -110.9372 246° West 498 573 38,000  Level Albuquerque Center
04:37PM 35.5167 -111.0839 245° Southwest 497 572 38,000  Level Albuquerque Center
04:38PM 35.4536 -111.2561 246° West 495 570 38,000  Level Albuquerque Center
04:39PM 35.3975 -111.4025 245° Southwest 495 570 38,000  Level Albuquerque Center
04:40PM 35.3389 -111.5664 246° West 506 582 38,000  Level Albuquerque Center
04:41PM 35.2814 -111.7167 245° Southwest 502 578 38,000  Level Albuquerque Center
04:42PM 35.2214 -111.8739 245° Southwest 501 577 38,000  Level Albuquerque Center
04:43PM 35.1628 -112.0281 245° Southwest 502 578 38,000  Level Albuquerque Center
04:44PM 35.1033 -112.1811 245° Southwest 501 577 38,000  Level Albuquerque Center
04:45PM 35.0331 -112.3639 245° Southwest 497 572 38,000 -540 Level Albuquerque Center
04:46PM 34.9739 -112.5150 244° Southwest 494 568 37,000 -1,020 Descending Albuquerque Center
04:47PM 34.9136 -112.6689 245° Southwest 499 574 36,000 -540 Descending Albuquerque Center
04:48PM 34.8547 -112.8214 245° Southwest 499 574 36,000  Level Albuquerque Center
04:49PM 34.7939 -112.9728 244° Southwest 497 572 36,000  Level Albuquerque Center
04:50PM 34.7356 -113.1217 245° Southwest 492 566 36,000  Level Albuquerque Center
04:51PM 34.6767 -113.2700 244° Southwest 489 563 36,000  Level Albuquerque Center
04:52PM 34.6053 -113.4475 244° Southwest 488 562 36,000  Level Albuquerque Center
04:53PM 34.5461 -113.5956 244° Southwest 489 563 36,000  Level Albuquerque Center
04:54PM 34.4906 -113.7308 244° Southwest 490 564 36,000 -480 Level Albuquerque Center
04:55PM 34.4183 -113.9081 244° Southwest 489 563 35,100 -1,020 Descending Albuquerque Center
04:56PM 34.3583 -114.0575 244° Southwest 492 566 34,000 -540 Descending Albuquerque Center
04:58PM 34.2950 -114.2017 242° Southwest 489 563 34,000 -60 Level Albuquerque Center
04:59PM 34.2300 -114.3489 242° Southwest 490 564 33,900 -540 Descending Albuquerque Center
04:59PM 34.1842 -114.4528 242° Southwest 503 579 33,200 -1,080 Descending Los Angeles Center
05:00PM 34.1186 -114.6031 242° Southwest 508 585 32,200 -1,020 Descending Los Angeles Center
05:01PM 34.0531 -114.7528 242° Southwest 508 585 31,200 -960 Descending Los Angeles Center
05:02PM 33.9864 -114.9008 242° Southwest 506 582 30,300 -600 Descending Los Angeles Center
05:03PM 33.9233 -115.0431 242° Southwest 486 559 30,000 -180 Descending Los Angeles Center
05:04PM 33.8600 -115.1861 242° Southwest 485 558 30,000  Level Los Angeles Center
05:05PM 33.7822 -115.3572 241° Southwest 486 559 30,000  Level Los Angeles Center
05:06PM 33.7183 -115.4992 242° Southwest 487 560 30,000 -600 Level Los Angeles Center
05:07PM 33.6550 -115.6422 242° Southwest 485 558 28,800 -1,680 Descending Los Angeles Center
05:08PM 33.5922 -115.7772 241° Southwest 469 540 26,600 -2,160 Descending Los Angeles Center
05:09PM 33.5300 -115.9075 240° Southwest 455 524 24,400 -2,460 Descending Los Angeles Center
05:11PM 33.4197 -116.0247 222° Southwest 442 509 21,600 -2,400 Descending Los Angeles Center
05:12PM 33.3292 -116.1175 221° Southwest 433 498 19,500 -2,040 Descending Los Angeles Center
05:13PM 33.2436 -116.2047 220° Southwest 411 473 17,500 -1,920 Descending Los Angeles Center
05:14PM 33.1558 -116.2753 214° Southwest 386 444 15,600 -1,920 Descending Los Angeles Center
05:15PM 33.0531 -116.3311 204° Southwest 375 432 13,500 -1,620 Descending Los Angeles Center
05:16PM 32.9733 -116.3872 211° Southwest 344 396 12,300 -780 Descending Los Angeles Center
05:17PM 32.9083 -116.4608 224° Southwest 325 374 12,000 -480 Descending Los Angeles Center
05:18PM 32.8431 -116.5381 225° Southwest 319 367 11,400 -780 Descending Los Angeles Center
05:19PM 32.8000 -116.6236 239° Southwest 303 349 10,500 -960 Descending Los Angeles Center
05:20PM 32.7514 -116.7086 236° Southwest 275 316 9,500 -1,080 Descending Los Angeles Center
05:21PM 32.6819 -116.7456 204° Southwest 274 315 8,300 -780 Descending Los Angeles Center
05:22PM 32.6358 -116.8033 227° Southwest 252 290 7,900 -780 Descending Los Angeles Center
05:23PM 32.6564 -116.8717 290° West 219 252 6,800 -1,200 Descending Los Angeles Center
05:24PM 32.6722 -116.9378 286° West 211 243 5,500 -1,380 Descending Los Angeles Center
05:25PM 32.6875 -117.0019 286° West 205 236 4,000 -1,560 Descending Los Angeles Center
05:26PM 32.7039 -117.0694 286° West 183 211 2,300 -1,320 Descending Los Angeles Center
05:27PM 32.7167 -117.1169 288° West 159 183 1,300 -900 Descending Los Angeles Center
05:28PM 32.7258 -117.1597 284° West 139 160 500 13,860 Descending Los Angeles Center
05:29PM 32.7372 -117.2056 286° West 138 159 30,000 28,500 Climbing Los Angeles Center
05:31PM 32.7333 -117.1833 281° West  Level FlightAware Approximate